createdAt,value
2022-12-29T00:00:15.218Z,67.53
2022-12-29T00:04:43.234Z,67.80
2022-12-29T00:08:50.954Z,67.63
2022-12-29T00:13:16.329Z,67.68
2022-12-29T00:17:24.284Z,67.76
2022-12-29T00:21:50.071Z,67.79
2022-12-29T00:26:17.258Z,67.84
2022-12-29T00:30:44.985Z,67.79
2022-12-29T00:35:10.993Z,67.79
2022-12-29T00:39:47.211Z,67.80
2022-12-29T00:44:07.528Z,68.03
2022-12-29T00:48:36.480Z,68.19
2022-12-29T00:52:44.785Z,68.12
2022-12-29T00:56:56.454Z,67.92
2022-12-29T01:01:08.999Z,67.57
2022-12-29T01:05:16.462Z,67.68
2022-12-29T01:09:44.084Z,67.31
2022-12-29T01:13:51.647Z,66.88
2022-12-29T01:17:58.998Z,66.56
2022-12-29T01:22:07.199Z,66.57
2022-12-29T01:26:16.812Z,66.40
2022-12-29T01:30:24.535Z,66.30
2022-12-29T01:34:32.544Z,66.30
2022-12-29T01:38:41.108Z,66.32
2022-12-29T01:42:50.114Z,66.33
2022-12-29T01:46:58.126Z,66.40
2022-12-29T01:51:07.581Z,66.51
2022-12-29T01:55:16.408Z,66.66
2022-12-29T01:59:28.099Z,66.90
2022-12-29T02:03:37.570Z,66.97
2022-12-29T02:07:45.952Z,66.93
2022-12-29T02:11:54.135Z,66.91
2022-12-29T02:16:10.239Z,66.76
2022-12-29T02:20:53.038Z,66.60
2022-12-29T02:25:21.760Z,66.39
2022-12-29T02:29:51.691Z,66.17
2022-12-29T02:34:09.646Z,65.80
2022-12-29T02:38:23.541Z,65.63
2022-12-29T02:42:36.767Z,65.68
2022-12-29T02:46:49.896Z,65.46
2022-12-29T02:51:03.399Z,65.23
2022-12-29T02:55:14.019Z,65.31
2022-12-29T02:59:21.975Z,65.19
2022-12-29T03:03:41.254Z,65.10
2022-12-29T03:07:55.134Z,64.78
2022-12-29T03:12:10.073Z,64.59
2022-12-29T03:16:24.492Z,64.47
2022-12-29T03:20:41.437Z,64.12
2022-12-29T03:24:50.849Z,64.20
2022-12-29T03:28:59.301Z,64.34
2022-12-29T03:33:09.533Z,63.78
2022-12-29T03:37:19.254Z,63.80
2022-12-29T03:41:32.041Z,63.80
2022-12-29T03:45:40.108Z,63.76
2022-12-29T03:49:47.518Z,63.97
2022-12-29T03:53:55.106Z,64.00
2022-12-29T03:58:03.187Z,64.18
2022-12-29T04:02:10.666Z,64.17
2022-12-29T04:06:18.385Z,64.08
2022-12-29T04:10:26.080Z,64.05
2022-12-29T04:14:34.300Z,64.07
2022-12-29T04:18:42.227Z,64.04
2022-12-29T04:22:50.074Z,63.71
2022-12-29T04:26:57.983Z,63.31
2022-12-29T04:31:06.619Z,63.24
2022-12-29T04:35:15.989Z,62.90
2022-12-29T04:39:23.971Z,62.64
2022-12-29T04:43:31.821Z,62.67
2022-12-29T04:47:42.329Z,62.17
2022-12-29T04:51:49.860Z,62.46
2022-12-29T04:55:58.285Z,62.30
2022-12-29T05:00:07.797Z,62.26
2022-12-29T05:04:15.448Z,62.17
2022-12-29T05:08:27.766Z,62.16
2022-12-29T05:12:41.656Z,62.22
2022-12-29T05:16:49.724Z,62.10
2022-12-29T05:20:57.242Z,62.24
2022-12-29T05:25:04.862Z,62.09
2022-12-29T05:29:12.832Z,61.43
2022-12-29T05:33:20.497Z,61.77
2022-12-29T05:37:28.551Z,61.73
2022-12-29T05:41:36.242Z,61.90
2022-12-29T05:45:43.865Z,61.90
2022-12-29T05:49:51.459Z,61.89
2022-12-29T05:53:59.019Z,61.86
2022-12-29T05:58:07.045Z,61.88
2022-12-29T06:02:15.250Z,61.93
2022-12-29T06:06:23.396Z,62.09
2022-12-29T06:10:31.161Z,62.10
2022-12-29T06:14:38.880Z,61.95
2022-12-29T06:18:46.417Z,62.08
2022-12-29T06:22:54.221Z,62.12
2022-12-29T06:27:01.828Z,62.24
2022-12-29T06:31:12.893Z,62.21
2022-12-29T06:35:21.084Z,62.33
2022-12-29T06:39:28.313Z,62.40
2022-12-29T06:43:37.257Z,62.37
2022-12-29T06:47:44.977Z,62.28
2022-12-29T06:51:52.948Z,62.14
2022-12-29T06:56:00.445Z,61.97
2022-12-29T07:00:10.850Z,62.02
2022-12-29T07:04:18.804Z,62.14
2022-12-29T07:08:26.768Z,61.97
2022-12-29T07:12:35.278Z,61.85
2022-12-29T07:16:44.731Z,61.90
2022-12-29T07:20:52.291Z,61.81
2022-12-29T07:25:00.266Z,62.01
2022-12-29T07:29:08.749Z,62.23
2022-12-29T07:33:16.338Z,62.28
2022-12-29T07:37:25.416Z,62.78
2022-12-29T07:41:32.880Z,63.43
2022-12-29T07:45:41.223Z,63.73
2022-12-29T07:49:50.558Z,63.82
2022-12-29T07:53:57.955Z,63.53
2022-12-29T07:58:05.234Z,63.69
2022-12-29T08:02:15.427Z,63.55
2022-12-29T08:06:24.259Z,63.57
2022-12-29T08:10:32.235Z,63.25
2022-12-29T08:14:40.495Z,63.15
2022-12-29T08:18:48.674Z,63.19
2022-12-29T08:22:57.002Z,62.72
2022-12-29T08:27:16.152Z,63.02
2022-12-29T08:31:28.112Z,63.09
2022-12-29T08:35:35.557Z,62.78
2022-12-29T08:39:43.202Z,63.09
2022-12-29T08:43:51.524Z,63.12
2022-12-29T08:48:00.242Z,63.24
2022-12-29T08:52:09.944Z,63.11
2022-12-29T08:56:24.968Z,63.56
2022-12-29T09:00:32.355Z,63.56
2022-12-29T09:04:39.966Z,63.81
2022-12-29T09:08:49.336Z,63.64
2022-12-29T09:12:56.605Z,63.76
2022-12-29T09:17:21.658Z,63.78
2022-12-29T09:21:30.559Z,63.15
2022-12-29T09:25:39.198Z,62.21
2022-12-29T09:29:47.100Z,62.30
2022-12-29T09:33:55.456Z,61.67
2022-12-29T09:38:03.429Z,61.63
2022-12-29T09:42:16.823Z,61.72
2022-12-29T09:46:28.779Z,61.19
2022-12-29T09:50:39.645Z,61.49
2022-12-29T09:55:00.159Z,61.42
2022-12-29T09:59:15.520Z,61.43
2022-12-29T10:03:25.333Z,61.47
2022-12-29T10:07:39.985Z,61.40
2022-12-29T10:12:00.609Z,61.93
2022-12-29T10:16:14.517Z,61.50
2022-12-29T10:20:31.887Z,61.20
2022-12-29T10:24:42.189Z,60.77
2022-12-29T10:28:53.336Z,60.75
2022-12-29T10:33:03.649Z,60.27
2022-12-29T10:37:27.477Z,60.60
2022-12-29T10:41:42.308Z,60.76
2022-12-29T10:45:50.872Z,60.68
2022-12-29T10:49:59.467Z,60.94
2022-12-29T10:54:18.104Z,60.53
2022-12-29T10:58:26.904Z,60.62
2022-12-29T11:02:56.601Z,60.27
2022-12-29T11:07:04.917Z,60.21
2022-12-29T11:11:13.591Z,59.86
2022-12-29T11:15:22.124Z,59.52
2022-12-29T11:19:36.216Z,59.36
2022-12-29T11:24:00.129Z,59.28
2022-12-29T11:28:19.366Z,59.54
2022-12-29T11:32:30.588Z,60.28
2022-12-29T11:36:39.008Z,60.02
2022-12-29T11:40:49.527Z,59.55
2022-12-29T11:44:57.413Z,59.38
2022-12-29T11:49:07.769Z,59.46
2022-12-29T11:53:23.236Z,59.37
2022-12-29T11:57:31.678Z,59.45
2022-12-29T12:01:42.065Z,59.40
2022-12-29T12:05:53.669Z,59.32
2022-12-29T12:10:07.990Z,59.39
2022-12-29T12:14:22.441Z,59.70
2022-12-29T12:18:36.469Z,59.94
2022-12-29T12:22:47.988Z,60.29
2022-12-29T12:27:03.898Z,60.51
2022-12-29T12:31:21.602Z,60.82
2022-12-29T12:35:35.152Z,61.11
2022-12-29T12:39:52.426Z,61.22
2022-12-29T12:44:07.295Z,61.28
2022-12-29T12:48:26.775Z,61.56
2022-12-29T12:52:40.689Z,61.61
2022-12-29T12:57:04.601Z,61.20
2022-12-29T13:01:24.271Z,61.19
2022-12-29T13:05:43.103Z,60.99
2022-12-29T13:10:18.579Z,61.29
2022-12-29T13:14:37.886Z,60.76
2022-12-29T13:18:51.319Z,60.63
2022-12-29T13:23:02.816Z,60.61
2022-12-29T13:27:19.142Z,60.90
2022-12-29T13:31:33.048Z,60.69
2022-12-29T13:35:55.084Z,60.58
2022-12-29T13:40:06.595Z,60.44
2022-12-29T13:44:19.557Z,60.38
2022-12-29T13:48:30.942Z,60.06
2022-12-29T13:52:42.049Z,60.32
2022-12-29T13:56:54.298Z,60.01
2022-12-29T14:01:06.502Z,60.36
2022-12-29T14:05:31.982Z,59.92
2022-12-29T14:09:47.853Z,60.23
2022-12-29T14:13:55.812Z,60.27
2022-12-29T14:18:16.061Z,60.31
2022-12-29T14:22:32.916Z,59.94
2022-12-29T14:26:41.621Z,60.43
2022-12-29T14:30:54.337Z,60.34
2022-12-29T14:35:24.392Z,60.22
2022-12-29T14:39:36.704Z,60.73
2022-12-29T14:43:44.509Z,60.72
2022-12-29T14:47:53.867Z,60.90
2022-12-29T14:52:16.062Z,61.26
2022-12-29T14:56:32.260Z,61.54
2022-12-29T15:00:40.716Z,61.62
2022-12-29T15:04:48.757Z,61.82
2022-12-29T15:09:01.413Z,62.23
2022-12-29T15:13:18.767Z,62.13
2022-12-29T15:17:31.086Z,62.25
2022-12-29T15:21:39.863Z,62.89
2022-12-29T15:25:55.709Z,62.78
2022-12-29T15:30:13.884Z,62.94
2022-12-29T15:34:25.416Z,62.89
2022-12-29T15:38:40.255Z,63.85
2022-12-29T15:42:59.759Z,63.70
2022-12-29T15:47:09.334Z,64.16
2022-12-29T15:51:23.453Z,64.13
2022-12-29T15:55:33.652Z,64.18
2022-12-29T15:59:49.527Z,64.32
2022-12-29T16:03:58.020Z,64.00
2022-12-29T16:08:22.998Z,63.97
2022-12-29T16:12:35.588Z,64.32
2022-12-29T16:16:45.485Z,64.37
2022-12-29T16:20:53.553Z,64.24
2022-12-29T16:25:05.072Z,64.21
2022-12-29T16:29:16.188Z,63.76
2022-12-29T16:33:47.001Z,63.83
2022-12-29T16:38:15.626Z,63.65
2022-12-29T16:42:51.252Z,63.65
2022-12-29T16:47:08.521Z,63.67
2022-12-29T16:51:18.660Z,63.37
2022-12-29T16:55:26.652Z,63.61
2022-12-29T16:59:38.086Z,63.24
2022-12-29T17:03:48.998Z,63.25
2022-12-29T17:08:02.013Z,63.53
2022-12-29T17:12:11.828Z,63.49
2022-12-29T17:16:19.478Z,63.99
2022-12-29T17:20:30.137Z,63.77
2022-12-29T17:24:38.568Z,64.19
2022-12-29T17:28:47.193Z,64.08
2022-12-29T17:32:58.720Z,64.36
2022-12-29T17:37:07.548Z,63.97
2022-12-29T17:41:17.391Z,63.89
2022-12-29T17:45:27.426Z,63.71
2022-12-29T17:49:35.226Z,63.70
2022-12-29T17:53:42.764Z,63.57
2022-12-29T17:57:50.442Z,63.80
2022-12-29T18:01:58.462Z,63.71
2022-12-29T18:06:08.654Z,63.33
2022-12-29T18:10:16.960Z,63.75
2022-12-29T18:14:25.605Z,63.60
2022-12-29T18:18:33.453Z,63.80
2022-12-29T18:22:41.537Z,63.39
2022-12-29T18:26:49.291Z,64.10
2022-12-29T18:30:57.635Z,63.91
2022-12-29T18:35:05.519Z,63.99
2022-12-29T18:39:14.120Z,64.10
2022-12-29T18:43:22.408Z,64.05
2022-12-29T18:47:31.118Z,63.65
2022-12-29T18:51:40.370Z,63.82
2022-12-29T18:55:48.230Z,63.64
2022-12-29T18:59:56.012Z,63.87
2022-12-29T19:04:06.351Z,63.76
2022-12-29T19:08:16.815Z,64.17
2022-12-29T19:12:29.688Z,64.01
2022-12-29T19:16:37.134Z,64.14
2022-12-29T19:20:47.387Z,64.32
2022-12-29T19:24:59.931Z,63.99
2022-12-29T19:29:14.086Z,64.31
2022-12-29T19:33:23.882Z,64.50
2022-12-29T19:37:36.437Z,64.54
2022-12-29T19:41:44.532Z,64.44
2022-12-29T19:45:53.699Z,64.97
2022-12-29T19:50:02.226Z,65.09
2022-12-29T19:54:09.701Z,65.22
2022-12-29T19:58:17.962Z,65.49
2022-12-29T20:02:27.375Z,65.67
2022-12-29T20:06:35.928Z,65.94
2022-12-29T20:10:43.469Z,65.99
2022-12-29T20:14:51.650Z,65.73
2022-12-29T20:18:59.806Z,66.15
2022-12-29T20:23:07.710Z,66.12
2022-12-29T20:27:16.309Z,65.95
2022-12-29T20:31:27.327Z,66.10
2022-12-29T20:35:35.617Z,65.85
2022-12-29T20:39:43.549Z,65.89
2022-12-29T20:43:51.403Z,66.01
2022-12-29T20:47:59.283Z,66.46
2022-12-29T20:52:07.633Z,66.27
2022-12-29T20:56:18.404Z,66.47
2022-12-29T21:00:26.541Z,66.78
2022-12-29T21:05:05.607Z,66.77
2022-12-29T21:09:03.581Z,66.97
2022-12-29T21:13:11.440Z,66.71
2022-12-29T21:17:19.363Z,66.74
2022-12-29T21:21:27.944Z,66.82
2022-12-29T21:25:38.419Z,67.05
2022-12-29T21:29:46.654Z,67.12
2022-12-29T21:33:54.931Z,67.24
2022-12-29T21:38:03.304Z,67.36
2022-12-29T21:42:11.105Z,67.40
2022-12-29T21:46:19.976Z,67.65
2022-12-29T21:50:28.879Z,67.91
2022-12-29T21:54:53.986Z,68.02
2022-12-29T21:59:23.015Z,67.98
2022-12-29T22:03:49.007Z,68.16
2022-12-29T22:08:14.402Z,68.01
2022-12-29T22:12:40.862Z,67.78
2022-12-29T22:16:48.728Z,67.64
2022-12-29T22:20:56.207Z,68.23
2022-12-29T22:25:04.325Z,68.03
2022-12-29T22:29:12.551Z,68.19
2022-12-29T22:33:20.202Z,68.31
2022-12-29T22:37:27.869Z,68.41
2022-12-29T22:41:35.735Z,68.18
2022-12-29T22:45:43.227Z,68.26
2022-12-29T22:49:50.560Z,68.37
2022-12-29T22:53:58.086Z,67.97
2022-12-29T22:58:06.794Z,67.77
2022-12-29T23:02:14.631Z,67.59
2022-12-29T23:06:22.547Z,67.63
2022-12-29T23:10:30.312Z,67.62
2022-12-29T23:14:38.594Z,67.57
2022-12-29T23:18:48.070Z,67.26
2022-12-29T23:22:55.985Z,67.44
2022-12-29T23:27:03.980Z,67.79
2022-12-29T23:31:11.612Z,67.75
2022-12-29T23:35:19.148Z,67.93
2022-12-29T23:39:27.318Z,67.96
2022-12-29T23:43:35.577Z,67.40
2022-12-29T23:47:43.239Z,67.36
2022-12-29T23:51:51.072Z,67.24
2022-12-29T23:55:59.003Z,67.26
